Time;durP1;ratioP1;P1;durP2;ratioP2;P2;SDS_P1;SDS_P2;PMS_P1;PMS_P2;Temp;Humidity;BMP_temperature;BMP_pressure;BME280_temperature;BME280_humidity;BME280_pressure;Samples;Min_cycle;Max_cycle;Signal;HPM_P1;HPM_P2
2021/03/06 00:02:20;;;;;;;11.33;7.93;;;-1.70;99.90;;;;;;5090255;28;20035;-77
2021/03/06 00:04:46;;;;;;;12.83;8.30;;;-1.80;99.90;;;;;;5091584;28;20036;-77
2021/03/06 00:07:12;;;;;;;12.40;8.53;;;-1.80;99.90;;;;;;5091497;28;20039;-77
2021/03/06 00:09:38;;;;;;;10.17;7.83;;;-1.80;99.90;;;;;;5091881;28;20085;-77
2021/03/06 00:12:04;;;;;;;11.00;7.90;;;-1.80;99.90;;;;;;5090435;28;20723;-77
2021/03/06 00:14:30;;;;;;;10.80;8.57;;;-1.80;99.90;;;;;;5091446;28;20028;-77
2021/03/06 00:16:55;;;;;;;10.73;8.50;;;-1.90;99.90;;;;;;5090113;28;20060;-77
2021/03/06 00:19:21;;;;;;;13.27;8.80;;;-1.80;99.90;;;;;;5091369;28;20059;-77
2021/03/06 00:21:46;;;;;;;11.20;8.50;;;-1.90;99.90;;;;;;5091260;28;20040;-77
2021/03/06 00:24:12;;;;;;;10.40;8.13;;;-1.90;99.90;;;;;;5091095;28;20052;-77
2021/03/06 00:26:38;;;;;;;11.80;8.00;;;-1.90;99.90;;;;;;5100430;28;20039;-77
2021/03/06 00:29:04;;;;;;;12.80;9.03;;;-1.90;99.90;;;;;;5109850;28;20035;-77
2021/03/06 00:31:29;;;;;;;10.67;8.10;;;-2.00;99.90;;;;;;5108266;28;20456;-77
2021/03/06 00:33:55;;;;;;;10.80;8.37;;;-1.90;99.90;;;;;;5101625;28;20057;-78
2021/03/06 00:36:20;;;;;;;10.80;8.47;;;-2.00;99.90;;;;;;5111394;28;20035;-78
2021/03/06 00:38:46;;;;;;;12.07;8.73;;;-2.00;99.90;;;;;;5109966;28;20024;-78
2021/03/06 00:41:12;;;;;;;13.13;8.53;;;-2.00;99.90;;;;;;5111309;28;20485;-77
2021/03/06 00:43:37;;;;;;;11.50;8.47;;;-2.10;99.90;;;;;;5111136;28;20023;-70
2021/03/06 00:46:03;;;;;;;11.53;8.37;;;-2.10;99.90;;;;;;5111426;28;20093;-70
2021/03/06 00:48:28;;;;;;;13.70;9.00;;;-2.00;99.90;;;;;;5101464;28;20048;-70
2021/03/06 00:50:54;;;;;;;13.30;9.07;;;-2.10;99.90;;;;;;5101870;28;20085;-70
2021/03/06 00:53:20;;;;;;;11.43;8.67;;;-2.10;99.90;;;;;;5110562;28;20055;-70
2021/03/06 00:55:45;;;;;;;13.10;8.93;;;-2.10;99.90;;;;;;5111461;28;20902;-70
2021/03/06 00:58:11;;;;;;;16.00;9.37;;;-2.10;99.90;;;;;;5111771;28;20039;-71
2021/03/06 01:00:37;;;;;;;13.27;8.97;;;-2.10;99.90;;;;;;5111661;28;20027;-71
2021/03/06 01:03:02;;;;;;;13.33;9.17;;;-2.20;99.90;;;;;;5110554;28;20028;-70
2021/03/06 01:05:28;;;;;;;14.23;8.50;;;-2.20;99.90;;;;;;5111892;28;20461;-71
2021/03/06 01:07:54;;;;;;;14.33;9.20;;;-2.20;99.90;;;;;;5111776;28;20034;-70
2021/03/06 01:10:30;;;;;;;13.93;10.83;;;-2.20;99.90;;;;;;5107737;28;20487;-72
2021/03/06 01:12:56;;;;;;;13.53;9.93;;;-2.20;99.90;;;;;;5095014;28;20023;-71
2021/03/06 01:15:22;;;;;;;13.50;9.43;;;-2.20;99.90;;;;;;5111880;28;20054;-71
2021/03/06 01:17:48;;;;;;;11.77;8.90;;;-2.20;99.90;;;;;;5111698;28;20357;-71
2021/03/06 01:20:14;;;;;;;12.27;8.90;;;-2.20;99.90;;;;;;5111835;28;20050;-71
2021/03/06 01:22:40;;;;;;;12.43;8.90;;;-2.10;99.90;;;;;;5111428;28;20038;-70
2021/03/06 01:25:07;;;;;;;13.60;9.07;;;-2.10;99.90;;;;;;5111297;28;20047;-70
2021/03/06 01:27:33;;;;;;;12.40;8.67;;;-2.10;99.90;;;;;;5102609;28;20384;-70
2021/03/06 01:29:58;;;;;;;14.70;9.30;;;-2.20;99.90;;;;;;5089843;28;20114;-70
2021/03/06 01:32:24;;;;;;;12.57;9.37;;;-2.20;99.90;;;;;;5080524;28;20032;-71
2021/03/06 01:34:50;;;;;;;12.17;9.03;;;-2.20;99.90;;;;;;5110216;28;20088;-72
2021/03/06 01:37:15;;;;;;;13.17;8.77;;;-2.20;99.90;;;;;;5111567;28;20032;-70
2021/03/06 01:39:41;;;;;;;12.37;9.40;;;-2.20;99.90;;;;;;5093839;28;20043;-70
2021/03/06 01:42:08;;;;;;;11.90;9.30;;;-2.30;99.90;;;;;;5090148;28;20036;-71
2021/03/06 01:44:34;;;;;;;14.00;9.10;;;-2.30;99.90;;;;;;5090784;28;20085;-70
2021/03/06 01:46:59;;;;;;;12.87;9.63;;;-2.30;99.90;;;;;;5090980;28;20024;-70
2021/03/06 01:49:26;;;;;;;14.67;9.83;;;-2.30;99.90;;;;;;5090700;28;20029;-70
2021/03/06 01:51:52;;;;;;;16.07;9.57;;;-2.30;99.90;;;;;;5091049;28;20533;-71
2021/03/06 01:54:22;;;;;;;11.43;8.77;;;-2.40;99.90;;;;;;5090748;28;20036;-70
2021/03/06 01:56:48;;;;;;;12.53;8.67;;;-2.40;99.90;;;;;;5089650;28;20035;-70
2021/03/06 01:59:15;;;;;;;13.00;9.90;;;-2.50;99.90;;;;;;5090841;28;20549;-70
2021/03/06 02:01:40;;;;;;;12.87;9.70;;;-2.50;99.90;;;;;;5090736;28;20456;-70
2021/03/06 02:04:07;;;;;;;13.40;9.77;;;-2.60;99.90;;;;;;5090692;28;20024;-70
2021/03/06 02:06:32;;;;;;;14.00;10.03;;;-2.60;99.90;;;;;;5090844;28;20024;-69
2021/03/06 02:08:58;;;;;;;15.37;10.47;;;-2.60;99.90;;;;;;5090864;28;20159;-71
2021/03/06 02:11:40;;;;;;;15.00;10.43;;;-2.60;99.90;;;;;;5111705;28;20560;-70
2021/03/06 02:14:16;;;;;;;15.20;10.47;;;-2.70;99.90;;;;;;5115006;28;20077;-70
2021/03/06 02:16:48;;;;;;;13.43;10.33;;;-2.70;99.90;;;;;;5114817;28;20076;-71
2021/03/06 02:19:35;;;;;;;12.77;9.27;;;-2.70;99.90;;;;;;5098740;28;20055;-70
2021/03/06 02:22:03;;;;;;;19.40;10.77;;;-2.70;99.90;;;;;;5088191;28;20103;-71
2021/03/06 02:25:08;;;;;;;14.90;10.70;;;-2.70;99.90;;;;;;5105153;28;20052;-71
2021/03/06 02:27:55;;;;;;;13.63;9.67;;;-2.70;99.90;;;;;;5103109;28;20816;-70
2021/03/06 02:30:22;;;;;;;15.10;9.73;;;-2.70;99.90;;;;;;5111743;28;20031;-70
2021/03/06 02:32:49;;;;;;;17.20;10.30;;;-2.70;99.90;;;;;;5094656;28;20380;-70
2021/03/06 02:35:18;;;;;;;16.17;10.50;;;-2.70;99.90;;;;;;5094129;28;20436;-69
2021/03/06 02:37:55;;;;;;;16.07;10.60;;;-2.70;99.90;;;;;;5097284;28;20449;-70
2021/03/06 02:40:22;;;;;;;14.23;10.53;;;-2.70;99.90;;;;;;5113151;28;20023;-70
2021/03/06 02:42:49;;;;;;;15.43;9.80;;;-2.70;99.90;;;;;;5112390;28;20027;-70
2021/03/06 02:45:15;;;;;;;17.10;10.60;;;-2.80;99.90;;;;;;5113027;28;20052;-70
2021/03/06 02:47:41;;;;;;;14.63;10.43;;;-2.80;99.90;;;;;;5112249;28;20073;-70
2021/03/06 02:50:09;;;;;;;13.87;9.73;;;-2.80;99.90;;;;;;5093874;28;20114;-70
2021/03/06 02:52:35;;;;;;;15.33;10.17;;;-2.70;99.90;;;;;;5102615;28;20403;-70
2021/03/06 02:55:01;;;;;;;14.70;10.10;;;-2.80;99.90;;;;;;5112330;28;20061;-70
2021/03/06 02:57:32;;;;;;;14.83;10.63;;;-2.80;99.90;;;;;;5114444;28;20070;-69
2021/03/06 03:00:42;;;;;;;15.10;10.70;;;-2.80;99.90;;;;;;5109468;28;20464;-70
2021/03/06 03:03:11;;;;;;;15.73;10.57;;;-2.90;99.90;;;;;;5051136;28;20033;-69
2021/03/06 03:06:01;;;;;;;14.03;9.90;;;-2.90;99.90;;;;;;5066760;28;20449;-70
2021/03/06 03:08:36;;;;;;;17.70;11.50;;;-2.90;99.90;;;;;;5072652;28;20086;-69
2021/03/06 03:11:03;;;;;;;;;;;-3.00;99.90;;;;;;5073519;28;20029;-70
2021/03/06 03:13:39;;;;;;;11.97;9.13;;;-3.00;99.90;;;;;;5103349;28;19919;-70
2021/03/06 03:16:30;;;;;;;14.93;9.97;;;-3.00;99.90;;;;;;5113780;28;20043;-70
2021/03/06 03:19:10;;;;;;;16.23;10.47;;;-3.00;99.90;;;;;;5108196;28;20060;-70
2021/03/06 03:21:40;;;;;;;14.23;9.93;;;-3.00;99.90;;;;;;5093349;28;20436;-71
2021/03/06 03:24:10;;;;;;;17.73;10.53;;;-3.10;99.90;;;;;;5092901;28;20081;-70
2021/03/06 03:26:39;;;;;;;13.37;10.03;;;-3.00;99.90;;;;;;5093156;28;20026;-70
2021/03/06 03:29:05;;;;;;;18.23;10.30;;;-3.10;99.90;;;;;;5102375;28;20031;-71
2021/03/06 03:31:32;;;;;;;14.83;9.83;;;-3.10;99.90;;;;;;5108677;28;20027;-70
2021/03/06 03:33:58;;;;;;;14.30;9.83;;;-3.10;99.90;;;;;;5093061;28;20337;-70
2021/03/06 03:36:25;;;;;;;13.73;10.23;;;-3.10;99.90;;;;;;5092933;28;20039;-70
2021/03/06 03:38:52;;;;;;;15.83;10.23;;;-3.10;99.90;;;;;;5093068;28;20031;-70
2021/03/06 03:41:18;;;;;;;16.53;9.87;;;-3.20;99.90;;;;;;5091371;28;20052;-70
2021/03/06 03:43:44;;;;;;;14.83;10.43;;;-3.20;99.90;;;;;;5107372;28;20119;-70
2021/03/06 03:46:10;;;;;;;12.60;10.00;;;-3.20;99.90;;;;;;5113063;28;20149;-70
2021/03/06 03:48:38;;;;;;;15.27;10.47;;;-3.20;99.90;;;;;;5102048;28;20020;-70
2021/03/06 03:51:04;;;;;;;16.13;10.63;;;-3.30;99.90;;;;;;5092744;28;20467;-70
2021/03/06 03:53:30;;;;;;;15.53;10.23;;;-3.30;99.90;;;;;;5092728;28;20024;-70
2021/03/06 03:55:56;;;;;;;14.60;10.47;;;-3.30;99.90;;;;;;5091326;28;20078;-70
2021/03/06 03:58:23;;;;;;;16.83;11.33;;;-3.30;99.90;;;;;;5090998;28;20373;-70
2021/03/06 04:00:59;;;;;;;14.73;10.37;;;-3.30;99.90;;;;;;5092442;28;20089;-70
2021/03/06 04:03:26;;;;;;;14.83;10.13;;;-3.40;99.90;;;;;;5092453;28;20116;-70
2021/03/06 04:05:52;;;;;;;14.33;10.17;;;-3.40;99.90;;;;;;5091131;28;20085;-70
2021/03/06 04:08:17;;;;;;;14.10;9.83;;;-3.40;99.90;;;;;;5092117;28;20024;-70
2021/03/06 04:10:43;;;;;;;17.47;9.60;;;-3.40;99.90;;;;;;5092639;28;20136;-70
2021/03/06 04:13:09;;;;;;;14.10;10.30;;;-3.40;99.90;;;;;;5092149;28;20377;-70
2021/03/06 04:15:35;;;;;;;15.47;10.13;;;-3.40;99.90;;;;;;5092003;28;20345;-71
2021/03/06 04:18:05;;;;;;;13.43;9.47;;;-3.50;99.90;;;;;;5090803;28;20028;-70
2021/03/06 04:20:31;;;;;;;15.63;10.27;;;-3.50;99.90;;;;;;5091870;28;20028;-70
2021/03/06 04:22:58;;;;;;;15.53;10.47;;;-3.50;99.90;;;;;;5101454;28;20549;-70
2021/03/06 04:25:23;;;;;;;15.53;9.97;;;-3.50;99.90;;;;;;5111565;28;20042;-70
2021/03/06 04:27:49;;;;;;;17.00;10.17;;;-3.50;99.90;;;;;;5110940;28;20020;-70
2021/03/06 04:30:15;;;;;;;12.73;9.47;;;-3.50;99.90;;;;;;5112228;28;20023;-70
2021/03/06 04:32:41;;;;;;;15.20;10.20;;;-3.50;99.90;;;;;;5112080;28;20052;-70
2021/03/06 04:35:08;;;;;;;13.77;9.57;;;-3.60;99.90;;;;;;5111785;28;20063;-70
2021/03/06 04:37:34;;;;;;;14.70;10.27;;;-3.60;99.90;;;;;;5112057;28;20065;-70
2021/03/06 04:40:00;;;;;;;14.83;10.37;;;-3.60;99.90;;;;;;5111549;28;20444;-70
2021/03/06 04:42:26;;;;;;;15.63;9.73;;;-3.60;99.90;;;;;;5110702;28;20452;-70
2021/03/06 04:44:52;;;;;;;14.43;10.53;;;-3.60;99.90;;;;;;5110799;28;20027;-70
2021/03/06 04:47:18;;;;;;;15.93;10.23;;;-3.60;99.90;;;;;;5096989;28;20020;-70
2021/03/06 04:49:44;;;;;;;16.07;10.10;;;-3.60;99.90;;;;;;5091346;28;20028;-70
2021/03/06 04:52:09;;;;;;;15.03;10.47;;;-3.60;99.90;;;;;;5090193;28;20016;-70
2021/03/06 04:54:35;;;;;;;14.60;10.07;;;-3.60;99.90;;;;;;5106709;28;20500;-70
2021/03/06 04:57:01;;;;;;;14.20;10.23;;;-3.70;99.90;;;;;;5089835;28;20051;-70
2021/03/06 04:59:27;;;;;;;15.27;10.53;;;-3.70;99.90;;;;;;5091538;28;20028;-70
2021/03/06 05:01:52;;;;;;;16.13;10.13;;;-3.70;99.90;;;;;;5091659;28;20032;-70
2021/03/06 05:04:18;;;;;;;13.80;10.23;;;-3.70;99.90;;;;;;5091741;28;20035;-71
2021/03/06 05:06:45;;;;;;;14.40;10.17;;;-3.70;99.90;;;;;;5102758;28;20380;-70
2021/03/06 05:09:11;;;;;;;17.37;10.40;;;-3.70;99.90;;;;;;5112126;28;20142;-70
2021/03/06 05:11:37;;;;;;;15.47;10.17;;;-3.70;99.90;;;;;;5111868;28;20741;-70
2021/03/06 05:14:03;;;;;;;16.50;10.13;;;-3.70;99.90;;;;;;5110958;28;20100;-70
2021/03/06 05:16:28;;;;;;;16.20;10.33;;;-3.80;99.90;;;;;;5111641;28;20055;-70
2021/03/06 05:18:54;;;;;;;14.13;9.53;;;-3.80;99.90;;;;;;5111706;28;20089;-70
2021/03/06 05:21:19;;;;;;;13.93;9.90;;;-3.80;99.90;;;;;;5110170;28;20034;-70
2021/03/06 05:23:45;;;;;;;14.40;9.20;;;-3.80;99.90;;;;;;5109276;28;20023;-70
2021/03/06 05:26:11;;;;;;;13.53;9.23;;;-3.80;99.90;;;;;;5104143;28;20181;-70
2021/03/06 05:28:36;;;;;;;14.50;9.70;;;-3.80;99.90;;;;;;5089461;28;20496;-70
2021/03/06 05:31:02;;;;;;;13.17;9.50;;;-3.80;99.90;;;;;;5095884;28;20027;-70
2021/03/06 05:33:27;;;;;;;14.47;9.37;;;-3.90;99.90;;;;;;5099938;28;20091;-70
2021/03/06 05:35:53;;;;;;;17.00;8.93;;;-3.90;99.90;;;;;;5111511;28;20061;-69
2021/03/06 05:38:18;;;;;;;20.13;11.27;;;-3.90;99.90;;;;;;5110169;28;20072;-70
2021/03/06 05:40:47;;;;;;;15.57;11.23;;;-3.90;99.90;;;;;;5109780;28;20027;-70
2021/03/06 05:43:14;;;;;;;18.53;12.43;;;-3.90;99.90;;;;;;5102791;28;20058;-73
2021/03/06 05:45:44;;;;;;;21.00;11.30;;;-3.90;99.90;;;;;;5090957;28;20028;-76
2021/03/06 05:48:10;;;;;;;21.57;14.17;;;-3.90;99.90;;;;;;5093885;28;20353;-76
2021/03/06 05:50:36;;;;;;;15.47;10.33;;;-3.90;99.90;;;;;;5093975;28;20020;-77
2021/03/06 05:53:03;;;;;;;16.53;10.50;;;-4.00;99.90;;;;;;5093970;28;20020;-77
2021/03/06 05:55:29;;;;;;;18.43;10.27;;;-4.00;99.90;;;;;;5092558;28;20031;-76
2021/03/06 05:57:56;;;;;;;15.00;9.93;;;-4.00;99.90;;;;;;5093862;28;20028;-77
2021/03/06 06:00:23;;;;;;;14.87;10.17;;;-4.00;99.90;;;;;;5094152;28;20477;-77
2021/03/06 06:02:53;;;;;;;17.20;11.67;;;-4.00;99.90;;;;;;5091951;28;20032;-72
2021/03/06 06:05:19;;;;;;;15.67;12.20;;;-4.00;99.90;;;;;;5092155;28;20414;-71
2021/03/06 06:07:46;;;;;;;18.97;13.33;;;-4.00;99.90;;;;;;5094009;28;20103;-71
2021/03/06 06:10:12;;;;;;;13.53;9.60;;;-4.00;99.90;;;;;;5092619;28;20023;-71
2021/03/06 06:12:42;;;;;;;14.37;10.33;;;-4.00;99.90;;;;;;5093968;28;20031;-71
2021/03/06 06:15:09;;;;;;;14.70;9.70;;;-4.00;99.90;;;;;;5092939;28;20438;-71
2021/03/06 06:17:34;;;;;;;14.30;9.40;;;-3.90;99.90;;;;;;5093708;28;20077;-71
2021/03/06 06:20:00;;;;;;;12.20;7.87;;;-3.90;99.90;;;;;;5093606;28;20468;-71
2021/03/06 06:22:27;;;;;;;11.70;8.20;;;-3.90;99.90;;;;;;5092502;28;20032;-71
2021/03/06 06:24:54;;;;;;;15.03;9.33;;;-3.90;99.90;;;;;;5093269;28;20109;-71
2021/03/06 06:27:26;;;;;;;14.13;9.90;;;-3.80;99.90;;;;;;5095718;28;20028;-70
2021/03/06 06:29:54;;;;;;;13.97;9.73;;;-3.80;99.90;;;;;;5096111;28;20026;-72
2021/03/06 06:32:25;;;;;;;16.27;9.83;;;-3.70;99.90;;;;;;5093056;28;20027;-72
2021/03/06 06:35:02;;;;;;;15.40;11.60;;;-3.70;99.90;;;;;;5093000;28;20174;-72
2021/03/06 06:37:29;;;;;;;14.00;10.43;;;-3.60;99.90;;;;;;5091265;28;20060;-72
2021/03/06 06:39:55;;;;;;;12.77;9.10;;;-3.60;99.90;;;;;;5090833;28;20024;-72
2021/03/06 06:42:32;;;;;;;13.70;9.73;;;-3.50;99.90;;;;;;5093055;28;20364;-72
2021/03/06 06:44:58;;;;;;;15.50;10.37;;;-3.50;99.90;;;;;;5090650;28;20210;-73
2021/03/06 06:47:24;;;;;;;17.60;12.27;;;-3.40;99.90;;;;;;5091683;28;20050;-72
2021/03/06 06:49:52;;;;;;;15.23;10.13;;;-3.30;99.90;;;;;;5092554;28;20077;-72
2021/03/06 06:52:20;;;;;;;12.60;9.00;;;-3.20;99.90;;;;;;5092920;28;20043;-76
2021/03/06 06:55:01;;;;;;;14.17;9.53;;;-3.10;99.90;;;;;;5092769;28;20066;-71
2021/03/06 06:57:27;;;;;;;13.87;10.00;;;-3.00;99.90;;;;;;5090989;28;20016;-72
2021/03/06 06:59:55;;;;;;;13.70;8.60;;;-2.90;99.90;;;;;;5090686;28;20024;-70
2021/03/06 07:02:21;;;;;;;13.33;8.70;;;-2.90;99.90;;;;;;5093545;28;20050;-70
2021/03/06 07:04:51;;;;;;;15.67;8.43;;;-2.80;99.90;;;;;;5092440;28;20111;-70
2021/03/06 07:07:20;;;;;;;12.97;7.97;;;-2.70;99.90;;;;;;5093816;28;20074;-70
2021/03/06 07:10:07;;;;;;;13.20;9.23;;;-2.70;99.90;;;;;;5100742;28;20043;-71
2021/03/06 07:12:57;;;;;;;11.90;7.30;;;-2.50;99.90;;;;;;5114122;28;20024;-71
2021/03/06 07:15:24;;;;;;;12.20;7.27;;;-2.30;99.90;;;;;;5114173;28;20344;-70
2021/03/06 07:17:53;;;;;;;9.40;6.80;;;-2.20;99.90;;;;;;5113658;28;20408;-69
2021/03/06 07:20:21;;;;;;;11.67;6.67;;;-2.10;99.90;;;;;;5113852;28;20030;-72
2021/03/06 07:22:51;;;;;;;11.40;6.10;;;-1.90;99.90;;;;;;5113936;28;20030;-73
2021/03/06 07:25:17;;;;;;;9.40;5.83;;;-1.80;99.90;;;;;;5114762;28;20075;-74
2021/03/06 07:27:43;;;;;;;10.80;5.70;;;-1.60;99.90;;;;;;5103522;28;20020;-71
2021/03/06 07:30:11;;;;;;;8.70;5.20;;;-1.40;99.90;;;;;;5093645;28;20036;-70
2021/03/06 07:32:42;;;;;;;8.30;5.37;;;-1.30;99.90;;;;;;5092007;28;20096;-75
2021/03/06 07:35:09;;;;;;;9.93;5.60;;;-1.10;99.90;;;;;;5093695;28;20472;-66
2021/03/06 07:37:37;;;;;;;7.60;5.27;;;-1.00;99.90;;;;;;5093350;28;20076;-71
2021/03/06 07:40:13;;;;;;;7.80;5.40;;;-0.90;99.90;;;;;;5094544;28;20028;-71
2021/03/06 07:42:54;;;;;;;10.60;5.50;;;-0.80;99.90;;;;;;5094364;28;20066;-71
2021/03/06 07:45:25;;;;;;;7.10;4.90;;;-0.80;99.90;;;;;;5094472;28;20468;-71
2021/03/06 07:48:06;;;;;;;12.87;5.13;;;-0.60;99.90;;;;;;5092718;28;20017;-73
2021/03/06 07:50:34;;;;;;;9.17;5.17;;;-0.50;99.90;;;;;;5109461;28;20016;-72
2021/03/06 07:53:02;;;;;;;8.40;5.17;;;-0.40;99.90;;;;;;5114290;28;20362;-72
2021/03/06 07:55:30;;;;;;;8.17;4.40;;;-0.30;99.90;;;;;;5112593;28;20161;-72
2021/03/06 07:58:12;;;;;;;7.23;4.70;;;-0.20;99.90;;;;;;5104724;28;20042;-73
2021/03/06 08:00:42;;;;;;;7.07;4.67;;;-0.10;99.90;;;;;;5093705;28;20024;-73
2021/03/06 08:03:33;;;;;;;13.57;7.33;;;0.00;99.90;;;;;;5093544;28;20024;-73
2021/03/06 08:06:05;;;;;;;9.10;4.77;;;-0.10;99.90;;;;;;5093538;28;20072;-74
2021/03/06 08:08:34;;;;;;;8.27;4.80;;;0.10;99.90;;;;;;5091010;28;20455;-73
2021/03/06 08:11:06;;;;;;;7.57;4.47;;;0.10;99.90;;;;;;5091200;28;20376;-73
2021/03/06 08:13:36;;;;;;;9.63;3.90;;;0.30;99.90;;;;;;5091489;28;20438;-73
2021/03/06 08:16:20;;;;;;;8.17;4.67;;;0.20;99.90;;;;;;5091247;28;20097;-72
2021/03/06 08:18:46;;;;;;;11.37;5.03;;;0.30;99.90;;;;;;5091055;28;20031;-73
2021/03/06 08:21:31;;;;;;;9.83;5.37;;;0.30;99.90;;;;;;5091245;28;20024;-72
2021/03/06 08:24:15;;;;;;;8.88;4.93;;;0.40;99.90;;;;;;5089910;28;20089;-73
2021/03/06 08:26:41;;;;;;;12.60;4.63;;;0.50;99.90;;;;;;5098000;28;20032;-73
2021/03/06 08:29:22;;;;;;;8.33;4.70;;;0.60;99.90;;;;;;5089767;28;20028;-74
2021/03/06 08:31:57;;;;;;;8.57;4.50;;;0.60;99.90;;;;;;5089413;28;20016;-75
2021/03/06 08:34:33;;;;;;;6.17;3.83;;;0.70;99.90;;;;;;5101091;28;20031;-75
2021/03/06 08:37:16;;;;;;;5.87;3.83;;;0.80;99.90;;;;;;5109515;28;20781;-75
2021/03/06 08:39:45;;;;;;;6.97;4.23;;;0.90;99.90;;;;;;5111142;28;20024;-75
2021/03/06 08:42:12;;;;;;;11.57;4.00;;;0.90;99.90;;;;;;5111135;28;20019;-75
2021/03/06 08:44:38;;;;;;;6.93;3.90;;;0.90;99.90;;;;;;5111365;28;20164;-75
2021/03/06 08:47:05;;;;;;;6.90;4.80;;;0.90;99.90;;;;;;5109518;28;20098;-75
2021/03/06 08:49:31;;;;;;;12.43;3.97;;;1.00;99.90;;;;;;5093687;28;20444;-75
2021/03/06 08:51:57;;;;;;;16.80;8.03;;;1.10;99.90;;;;;;5090527;28;20028;-74
2021/03/06 08:54:24;;;;;;;9.53;5.53;;;1.20;99.90;;;;;;5089210;28;20499;-74
2021/03/06 08:56:50;;;;;;;25.67;12.93;;;1.30;99.90;;;;;;5101814;28;20384;-74
2021/03/06 08:59:15;;;;;;;8.00;4.90;;;1.30;99.90;;;;;;5101236;28;20340;-74
2021/03/06 09:01:44;;;;;;;6.47;4.27;;;1.40;99.90;;;;;;5090298;28;20026;-75
2021/03/06 09:04:10;;;;;;;8.23;5.53;;;1.40;99.90;;;;;;5088923;28;20101;-74
2021/03/06 09:06:40;;;;;;;6.50;3.97;;;1.50;99.90;;;;;;5089035;28;20020;-74
2021/03/06 09:09:09;;;;;;;6.97;4.63;;;1.60;99.90;;;;;;5089635;28;20031;-74
2021/03/06 09:11:57;;;;;;;5.13;3.60;;;1.80;99.90;;;;;;5088904;28;20384;-74
2021/03/06 09:14:24;;;;;;;6.60;4.00;;;1.80;99.90;;;;;;5109595;28;20027;-74
2021/03/06 09:16:50;;;;;;;15.70;6.30;;;1.90;99.90;;;;;;5110069;28;20035;-74
2021/03/06 09:19:27;;;;;;;20.20;7.90;;;2.10;99.90;;;;;;5110728;28;20062;-74
2021/03/06 09:22:11;;;;;;;9.70;4.57;;;2.30;99.90;;;;;;5109547;28;20064;-74
2021/03/06 09:24:47;;;;;;;9.80;5.53;;;2.30;99.90;;;;;;5089883;28;20051;-75
2021/03/06 09:27:13;;;;;;;21.93;8.83;;;2.50;99.90;;;;;;5090029;28;20027;-76
2021/03/06 09:29:40;;;;;;;21.13;6.47;;;2.60;99.90;;;;;;5090208;28;20028;-72
2021/03/06 09:32:06;;;;;;;13.70;4.90;;;2.70;99.90;;;;;;5091703;28;20028;-73
2021/03/06 09:34:32;;;;;;;12.37;5.70;;;2.70;99.90;;;;;;5092253;28;20028;-75
2021/03/06 09:36:57;;;;;;;20.00;7.07;;;2.90;99.90;;;;;;5090882;28;20035;-72
2021/03/06 09:39:26;;;;;;;10.73;5.27;;;3.00;99.90;;;;;;5091744;28;20032;-72
2021/03/06 09:41:52;;;;;;;13.57;5.87;;;3.10;99.90;;;;;;5091959;28;20136;-78
2021/03/06 09:44:18;;;;;;;13.83;5.93;;;3.20;99.90;;;;;;5090734;28;20024;-72
2021/03/06 09:46:44;;;;;;;12.53;6.13;;;3.20;99.00;;;;;;5092003;28;20024;-73
2021/03/06 09:49:13;;;;;;;11.67;5.47;;;3.20;99.40;;;;;;5091716;28;20028;-80
2021/03/06 09:51:47;;;;;;;9.50;4.90;;;3.30;99.90;;;;;;5100959;28;20027;-72
2021/03/06 09:54:18;;;;;;;8.37;4.37;;;3.50;99.90;;;;;;5110646;28;20111;-73
2021/03/06 09:56:59;;;;;;;8.60;5.03;;;3.40;99.60;;;;;;5110594;28;20032;-73
2021/03/06 09:59:26;;;;;;;6.77;4.80;;;3.60;99.80;;;;;;5102647;28;20107;-72
2021/03/06 10:01:52;;;;;;;7.37;5.17;;;3.60;96.70;;;;;;5090154;28;20028;-71
2021/03/06 10:04:21;;;;;;;6.83;4.47;;;3.70;97.00;;;;;;5100738;28;20031;-72
2021/03/06 10:06:50;;;;;;;7.20;5.00;;;3.80;97.00;;;;;;5111953;28;20047;-72
2021/03/06 10:09:17;;;;;;;10.27;6.43;;;4.00;98.80;;;;;;5108793;28;20020;-71
2021/03/06 10:11:46;;;;;;;10.53;6.00;;;4.20;97.10;;;;;;5091813;28;20058;-72
2021/03/06 10:14:17;;;;;;;8.87;5.80;;;4.30;97.00;;;;;;5092858;28;20052;-71
2021/03/06 10:16:56;;;;;;;14.47;6.93;;;4.30;95.30;;;;;;5112102;28;20369;-72
2021/03/06 10:19:24;;;;;;;9.53;5.43;;;4.20;94.90;;;;;;5110945;28;20032;-71
2021/03/06 10:22:06;;;;;;;10.00;4.93;;;4.40;95.90;;;;;;5112330;28;20464;-72
2021/03/06 10:24:53;;;;;;;13.63;6.20;;;4.40;96.00;;;;;;5110930;28;20147;-72
2021/03/06 10:27:31;;;;;;;9.33;5.40;;;4.60;97.20;;;;;;5112547;28;20020;-71
2021/03/06 10:30:16;;;;;;;13.87;6.43;;;4.50;95.60;;;;;;5103197;28;20035;-71
2021/03/06 10:32:43;;;;;;;11.57;6.37;;;4.50;97.60;;;;;;5093186;28;20024;-71
2021/03/06 10:35:36;;;;;;;9.23;5.37;;;4.40;95.00;;;;;;5095571;28;20088;-71
2021/03/06 10:38:04;;;;;;;7.23;4.80;;;4.50;95.20;;;;;;5107417;28;20107;-71
2021/03/06 10:40:47;;;;;;;13.17;5.90;;;4.60;95.00;;;;;;5116097;28;20062;-71
2021/03/06 10:43:39;;;;;;;13.03;5.57;;;4.70;96.90;;;;;;5114911;28;20380;-71
2021/03/06 10:46:15;;;;;;;8.80;4.60;;;5.00;97.20;;;;;;5108492;28;20020;-71
2021/03/06 10:48:42;;;;;;;10.80;5.53;;;5.10;97.90;;;;;;5095426;28;20125;-71
2021/03/06 10:51:08;;;;;;;10.37;5.80;;;5.00;96.40;;;;;;5094185;28;20065;-66
2021/03/06 10:53:34;;;;;;;10.33;5.83;;;5.30;97.20;;;;;;5099713;28;20160;-65
2021/03/06 10:56:04;;;;;;;13.57;6.53;;;5.30;96.60;;;;;;5115208;28;20075;-71
2021/03/06 10:58:47;;;;;;;12.40;6.80;;;5.30;94.90;;;;;;5116066;28;20023;-71
2021/03/06 11:01:15;;;;;;;6.63;4.80;;;5.30;95.50;;;;;;5115682;28;20022;-71
2021/03/06 11:03:51;;;;;;;14.70;6.80;;;5.10;92.90;;;;;;5115844;28;20079;-71
2021/03/06 11:06:19;;;;;;;32.83;15.50;;;5.20;96.10;;;;;;5114240;28;20367;-71
2021/03/06 11:09:01;;;;;;;9.43;5.03;;;5.40;95.30;;;;;;5115542;28;20047;-72
2021/03/06 11:11:27;;;;;;;16.03;6.20;;;5.20;93.30;;;;;;5115584;28;20023;-71
2021/03/06 11:13:52;;;;;;;13.67;6.70;;;5.20;94.50;;;;;;5115135;28;20364;-71
2021/03/06 11:16:35;;;;;;;17.70;7.70;;;5.30;94.60;;;;;;5112084;28;20480;-72
2021/03/06 11:19:01;;;;;;;10.73;6.80;;;5.40;97.60;;;;;;5073180;28;20029;-71
2021/03/06 11:21:27;;;;;;;8.33;4.77;;;5.40;94.10;;;;;;5073266;28;20024;-71
2021/03/06 11:23:52;;;;;;;17.80;8.07;;;5.30;93.20;;;;;;5074709;28;20028;-72
2021/03/06 11:26:18;;;;;;;12.57;6.00;;;5.60;93.30;;;;;;5072938;28;20045;-72
2021/03/06 11:28:43;;;;;;;19.83;8.60;;;5.70;94.70;;;;;;5073184;28;20032;-72
2021/03/06 11:31:09;;;;;;;11.67;6.23;;;5.70;93.10;;;;;;5074312;28;20031;-72
2021/03/06 11:33:34;;;;;;;8.50;5.83;;;5.60;91.50;;;;;;5074581;28;20021;-71
2021/03/06 11:36:00;;;;;;;8.77;5.10;;;5.90;94.60;;;;;;5072915;28;20025;-72
2021/03/06 11:38:26;;;;;;;14.93;7.63;;;5.70;91.70;;;;;;5074384;28;20029;-72
2021/03/06 11:40:56;;;;;;;10.13;5.87;;;5.60;91.90;;;;;;5074209;28;20036;-72
2021/03/06 11:43:23;;;;;;;11.00;5.90;;;5.80;92.80;;;;;;5082488;28;20102;-72
2021/03/06 11:45:48;;;;;;;11.40;6.17;;;5.90;92.60;;;;;;5093995;28;20027;-72
2021/03/06 11:48:14;;;;;;;5.33;4.07;;;5.90;92.10;;;;;;5094102;28;20027;-72
2021/03/06 11:50:46;;;;;;;10.30;6.40;;;5.60;90.70;;;;;;5093898;28;20019;-72
2021/03/06 11:53:11;;;;;;;13.33;7.13;;;5.80;90.10;;;;;;5092137;28;20067;-76
2021/03/06 11:55:38;;;;;;;17.13;8.30;;;5.80;91.10;;;;;;5093771;28;20480;-73
2021/03/06 11:58:04;;;;;;;12.70;6.07;;;5.70;88.30;;;;;;5092723;28;20028;-75
2021/03/06 12:00:33;;;;;;;8.47;5.37;;;5.90;90.70;;;;;;5092943;28;20024;-73
2021/03/06 12:02:58;;;;;;;7.70;4.50;;;5.90;91.40;;;;;;5092715;28;20020;-75
2021/03/06 12:05:25;;;;;;;8.33;5.50;;;6.00;92.80;;;;;;5091686;28;20032;-76
2021/03/06 12:07:52;;;;;;;11.43;4.53;;;6.00;91.20;;;;;;5092775;28;20020;-73
2021/03/06 12:10:21;;;;;;;10.77;5.20;;;6.10;90.60;;;;;;5098881;28;20019;-73
2021/03/06 12:12:46;;;;;;;10.80;4.93;;;6.00;91.90;;;;;;5092844;28;20024;-72
2021/03/06 12:15:14;;;;;;;10.97;5.83;;;5.80;90.60;;;;;;5093617;28;20028;-72
2021/03/06 12:17:41;;;;;;;8.70;4.30;;;6.00;92.20;;;;;;5092918;28;20054;-72
2021/03/06 12:20:09;;;;;;;13.83;6.50;;;5.80;90.20;;;;;;5093346;28;20096;-72
2021/03/06 12:22:35;;;;;;;7.07;4.93;;;5.90;91.70;;;;;;5092582;28;20433;-72
2021/03/06 12:25:00;;;;;;;11.00;6.13;;;6.20;93.00;;;;;;5091536;28;20056;-72
2021/03/06 12:27:26;;;;;;;9.23;5.43;;;6.10;91.00;;;;;;5090929;28;20097;-64
2021/03/06 12:29:52;;;;;;;13.93;7.83;;;6.10;90.90;;;;;;5091613;28;20027;-73
2021/03/06 12:32:17;;;;;;;9.77;4.63;;;6.20;90.30;;;;;;5093030;28;20024;-73
2021/03/06 12:34:43;;;;;;;10.93;5.57;;;6.00;90.60;;;;;;5092861;28;20080;-73
2021/03/06 12:37:08;;;;;;;12.20;6.17;;;6.10;90.00;;;;;;5092855;28;20100;-72
2021/03/06 12:39:34;;;;;;;9.17;4.60;;;6.00;90.40;;;;;;5093059;28;20056;-72
2021/03/06 12:42:02;;;;;;;9.10;5.30;;;6.10;90.80;;;;;;5092868;28;20032;-72
2021/03/06 12:44:28;;;;;;;6.60;4.67;;;6.20;87.70;;;;;;5091504;28;20024;-72
2021/03/06 12:46:53;;;;;;;9.10;4.77;;;6.10;86.90;;;;;;5092654;28;20372;-72
2021/03/06 12:49:20;;;;;;;12.60;6.37;;;6.10;89.30;;;;;;5092917;28;20020;-73
2021/03/06 12:51:46;;;;;;;7.63;5.50;;;6.10;90.70;;;;;;5092627;28;20048;-73